Hellenic Highspeed — SVAI2 — position and weather

sailwx.info

Track history (hours):
 
Tides and Currents Weather Stations Pressure Air Temp Water Temp Dewpoint Dewpoint Depression Visibility Wind Speed Wind Dir Waves Ship Positions

Hellenic Highspeed

Last reported at 2018-Jun-20 15:01 UTC. Time now 2018-Jun-20 15:16 UTC.
Position N 37°42' E 023°46'.

Length 87 m; draft 4 m.

Type: High speed craft. MMSI: 241420000.

Date/timePositionNaut miles runAvg speedWind from/ knotsBaromVisibWave heightAir tempDewpointWater temp
2018-Jun-20 15:01N 37°42' E 023°46'2 0.2
2018-Jun-20 04:58N 37°40' E 023°44'1225.4
2018-Jun-20 04:31N 37°50' E 023°37'713.6
2018-Jun-20 04:00N 37°57' E 023°38'0 0.0
2018-Jun-20 03:31N 37°57' E 023°38'0 0.0
2018-Jun-20 03:01N 37°57' E 023°38'0 0.0
2018-Jun-20 02:31N 37°57' E 023°38'0 0.0
2018-Jun-20 02:01N 37°57' E 023°38'0 0.0
2018-Jun-20 01:31N 37°57' E 023°38'0 0.0
2018-Jun-20 01:01N 37°57' E 023°38'0 0.0
2018-Jun-20 00:31N 37°57' E 023°38'0 0.0
2018-Jun-20 00:01N 37°57' E 023°38'0 0.0
2018-Jun-19 23:30N 37°57' E 023°38'0 0.0
2018-Jun-19 23:01N 37°57' E 023°38'0 0.0
2018-Jun-19 22:31N 37°57' E 023°38'0 0.0
2018-Jun-19 22:00N 37°57' E 023°38'0 0.0
2018-Jun-19 21:31N 37°57' E 023°38'0 0.0
2018-Jun-19 21:01N 37°57' E 023°38'0 0.0
2018-Jun-19 20:31N 37°57' E 023°38'0 0.0
2018-Jun-19 20:01N 37°57' E 023°38'0 0.0
2018-Jun-19 19:30N 37°57' E 023°38'0 0.0
2018-Jun-19 19:01N 37°57' E 023°38'0 0.0
2018-Jun-19 18:31N 37°57' E 023°38'0 0.0
2018-Jun-19 18:01N 37°57' E 023°38'0 0.0
2018-Jun-19 17:31N 37°57' E 023°38'0 0.0
2018-Jun-19 17:01N 37°57' E 023°38'0 0.0
2018-Jun-19 16:31N 37°57' E 023°38'0 0.0
2018-Jun-19 16:01N 37°57' E 023°38'3 7.0
2018-Jun-19 15:31N 37°53' E 023°38'18 1.7
2018-Jun-19 04:59N 37°37' E 023°47'1429.2
2018-Jun-19 04:30N 37°49' E 023°38'816.3
2018-Jun-19 04:01N 37°57' E 023°38'0 0.0
2018-Jun-19 03:30N 37°57' E 023°38'0 0.0
2018-Jun-19 03:00N 37°57' E 023°38'0 0.0
2018-Jun-19 02:30N 37°57' E 023°38'0 0.0
2018-Jun-19 02:00N 37°57' E 023°38'0 0.0
2018-Jun-19 01:31N 37°57' E 023°38'0 0.0
2018-Jun-19 01:00N 37°57' E 023°38'0 0.0
2018-Jun-19 00:30N 37°57' E 023°38'0 0.0
2018-Jun-19 00:00N 37°57' E 023°38'0 0.0
2018-Jun-18 23:30N 37°57' E 023°38'0 0.0
2018-Jun-18 23:01N 37°57' E 023°38'0 0.0
2018-Jun-18 22:30N 37°57' E 023°38'0 0.0
2018-Jun-18 22:00N 37°57' E 023°38'0 0.0
2018-Jun-18 21:30N 37°57' E 023°38'0 0.0
2018-Jun-18 21:00N 37°57' E 023°38'0 0.0
2018-Jun-18 20:30N 37°57' E 023°38'0 0.0
2018-Jun-18 20:00N 37°57' E 023°38'0 0.0
2018-Jun-18 19:30N 37°57' E 023°38'0 0.0
2018-Jun-18 19:00N 37°57' E 023°38'0 0.0
2018-Jun-18 18:30N 37°57' E 023°38'0 0.0
2018-Jun-18 18:00N 37°57' E 023°38'0 0.0
2018-Jun-18 17:30N 37°57' E 023°38'0 0.0
2018-Jun-18 17:00N 37°57' E 023°38'0 0.0
2018-Jun-18 16:30N 37°57' E 023°38'0 0.0
2018-Jun-18 16:01N 37°57' E 023°38'3 7.0
2018-Jun-18 15:31N 37°53' E 023°38'1427.8
2018-Jun-18 15:00N 37°41' E 023°46'2 0.2
2018-Jun-18 04:54N 37°39' E 023°45'1128.8
2018-Jun-18 04:31N 37°49' E 023°38'816.0
2018-Jun-18 04:00N 37°57' E 023°38'0 0.0
2018-Jun-18 03:30N 37°57' E 023°38'0 0.0
2018-Jun-18 03:00N 37°57' E 023°38'0 0.0
2018-Jun-18 02:30N 37°57' E 023°38'0 0.0
2018-Jun-18 02:00N 37°57' E 023°38'0 0.0
2018-Jun-18 01:30N 37°57' E 023°38'0 0.0
2018-Jun-18 01:00N 37°57' E 023°38'0 0.0
2018-Jun-18 00:30N 37°57' E 023°38'0 0.0
2018-Jun-18 00:00N 37°57' E 023°38'0 0.0
2018-Jun-17 23:30N 37°57' E 023°38'0 0.0
2018-Jun-17 23:00N 37°57' E 023°38'0 0.0
2018-Jun-17 22:30N 37°57' E 023°38'0 0.0
2018-Jun-17 22:00N 37°57' E 023°38'0 0.0
2018-Jun-17 21:30N 37°57' E 023°38'0 0.0
2018-Jun-17 21:00N 37°57' E 023°38'0 0.0
2018-Jun-17 20:30N 37°57' E 023°38'0 0.0
2018-Jun-17 20:01N 37°57' E 023°38'0 0.0
2018-Jun-17 19:30N 37°57' E 023°38'0 0.0
2018-Jun-17 19:00N 37°57' E 023°38'0 0.0
2018-Jun-17 18:30N 37°57' E 023°38'0 0.0
2018-Jun-17 18:00N 37°57' E 023°38'0 0.0
2018-Jun-17 17:30N 37°57' E 023°38'0 0.0
2018-Jun-17 17:00N 37°57' E 023°38'0 0.0
2018-Jun-17 16:30N 37°57' E 023°38'0 0.0
2018-Jun-17 16:00N 37°57' E 023°38'5 9.6
2018-Jun-17 15:31N 37°52' E 023°39'16 1.6
2018-Jun-17 05:00N 37°37' E 023°47'1428.9
2018-Jun-17 04:31N 37°49' E 023°37'815.7
2018-Jun-17 04:01N 37°57' E 023°38'0 0.0
2018-Jun-17 03:30N 37°57' E 023°38'0 0.0
2018-Jun-17 03:00N 37°57' E 023°38'0 0.0
2018-Jun-17 02:30N 37°57' E 023°38'0 0.0
2018-Jun-17 02:00N 37°57' E 023°38'0 0.0
2018-Jun-17 01:30N 37°57' E 023°38'0 0.0
2018-Jun-17 01:00N 37°57' E 023°38'0 0.0
2018-Jun-17 00:30N 37°57' E 023°38'0 0.0
2018-Jun-17 00:00N 37°57' E 023°38'0 0.0
2018-Jun-16 23:30N 37°57' E 023°38'0 0.0
2018-Jun-16 23:00N 37°57' E 023°38'0 0.0
2018-Jun-16 22:30N 37°57' E 023°38'0 0.0
2018-Jun-16 22:00N 37°57' E 023°38'0 0.0
2018-Jun-16 21:30N 37°57' E 023°38'0 0.0
2018-Jun-16 21:00N 37°57' E 023°38'0 0.0
2018-Jun-16 20:30N 37°57' E 023°38'0 0.0
2018-Jun-16 20:00N 37°57' E 023°38'0 0.0
2018-Jun-16 19:30N 37°57' E 023°38'0 0.0
2018-Jun-16 19:00N 37°57' E 023°38'0 0.0
2018-Jun-16 18:30N 37°57' E 023°38'0 0.0
2018-Jun-16 18:00N 37°57' E 023°38'0 0.0
2018-Jun-16 17:30N 37°57' E 023°38'0 0.0
2018-Jun-16 17:00N 37°57' E 023°38'0 0.0
2018-Jun-16 16:30N 37°57' E 023°38'0 0.0
2018-Jun-16 16:00N 37°57' E 023°38'4 7.7
2018-Jun-16 15:31N 37°53' E 023°38'16 1.5
2018-Jun-16 04:56N 37°38' E 023°46'1228.7
2018-Jun-16 04:31N 37°49' E 023°38'816.4
2018-Jun-16 04:00N 37°57' E 023°38'0 0.0
2018-Jun-16 03:30N 37°57' E 023°38'0 0.0
2018-Jun-16 03:00N 37°57' E 023°38'0 0.0
2018-Jun-16 02:30N 37°57' E 023°38'0 0.0
2018-Jun-16 02:00N 37°57' E 023°38'0 0.0
2018-Jun-16 01:30N 37°57' E 023°38'0 0.0
2018-Jun-16 01:00N 37°57' E 023°38'0 0.0
2018-Jun-16 00:30N 37°57' E 023°38'0 0.0
2018-Jun-16 00:00N 37°57' E 023°38'0 0.0
2018-Jun-15 23:30N 37°57' E 023°38'0 0.0
2018-Jun-15 23:00N 37°57' E 023°38'0 0.0
2018-Jun-15 22:30N 37°57' E 023°38'0 0.0
2018-Jun-15 22:00N 37°57' E 023°38'0 0.0
2018-Jun-15 21:30N 37°57' E 023°38'0 0.0
2018-Jun-15 21:00N 37°57' E 023°38'0 0.0
2018-Jun-15 20:30N 37°57' E 023°38'0 0.0
2018-Jun-15 20:00N 37°57' E 023°38'0 0.0
2018-Jun-15 19:30N 37°57' E 023°38'0 0.0
2018-Jun-15 19:00N 37°57' E 023°38'0 0.0
2018-Jun-15 18:30N 37°57' E 023°38'0 0.0
2018-Jun-15 18:00N 37°57' E 023°38'0 0.0
2018-Jun-15 17:30N 37°57' E 023°38'0 0.0
2018-Jun-15 17:00N 37°57' E 023°38'0 0.0
2018-Jun-15 16:30N 37°57' E 023°38'0 0.0
2018-Jun-15 16:00N 37°57' E 023°38'5 9.6
2018-Jun-15 15:31N 37°52' E 023°39'16 1.5
2018-Jun-15 05:00N 37°37' E 023°46'1427.5
2018-Jun-15 04:31N 37°49' E 023°37'815.4
2018-Jun-15 04:00N 37°57' E 023°38'0 0.0
2018-Jun-15 03:30N 37°57' E 023°38'0 0.0
2018-Jun-15 03:00N 37°57' E 023°38'0 0.0
2018-Jun-15 02:30N 37°57' E 023°38'0 0.0
2018-Jun-15 01:59N 37°57' E 023°38'0 0.0
2018-Jun-15 01:30N 37°57' E 023°38'0 0.0
2018-Jun-15 01:00N 37°57' E 023°38'0 0.0
2018-Jun-15 00:30N 37°57' E 023°38'0 0.0
2018-Jun-15 00:00N 37°57' E 023°38'0 0.0
2018-Jun-14 23:30N 37°57' E 023°38'0 0.0
2018-Jun-14 23:00N 37°57' E 023°38'0 0.0
2018-Jun-14 22:30N 37°57' E 023°38'0 0.0
2018-Jun-14 22:00N 37°57' E 023°38'0 0.0
2018-Jun-14 21:30N 37°57' E 023°38'0 0.0
2018-Jun-14 21:00N 37°57' E 023°38'0 0.0
2018-Jun-14 20:30N 37°57' E 023°38'0 0.0
2018-Jun-14 20:00N 37°57' E 023°38'0 0.0
2018-Jun-14 19:30N 37°57' E 023°38'0 0.0
2018-Jun-14 19:00N 37°57' E 023°38'0 0.0
2018-Jun-14 18:30N 37°57' E 023°38'0 0.0
2018-Jun-14 18:00N 37°57' E 023°38'0 0.0
2018-Jun-14 17:30N 37°57' E 023°38'0 0.0
2018-Jun-14 17:00N 37°57' E 023°38'0 0.0
2018-Jun-14 16:30N 37°57' E 023°38'0 0.0
2018-Jun-14 16:00N 37°57' E 023°38'2 4.1
2018-Jun-14 15:30N 37°55' E 023°37'1326.3
2018-Jun-14 15:00N 37°43' E 023°44'3 0.3
2018-Jun-14 04:52N 37°40' E 023°43'1028.8
2018-Jun-14 04:30N 37°49' E 023°37'8 0.6
2018-Jun-13 14:42N 37°57' E 023°38'0 0.0
2018-Jun-13 14:31N 37°57' E 023°38'0 0.0
2018-Jun-13 14:01N 37°57' E 023°38'0 0.0
2018-Jun-13 13:31N 37°57' E 023°38'0 0.0
2018-Jun-13 13:01N 37°57' E 023°38'0 0.0
2018-Jun-13 12:30N 37°57' E 023°38'0 0.0
2018-Jun-13 12:01N 37°57' E 023°38'0 0.0
2018-Jun-13 11:30N 37°57' E 023°38'0 0.0
2018-Jun-13 11:01N 37°57' E 023°38'0 0.0
2018-Jun-13 10:30N 37°57' E 023°38'0 0.0
2018-Jun-13 10:01N 37°57' E 023°38'0 0.0
2018-Jun-13 09:31N 37°57' E 023°38'0 0.0
2018-Jun-13 09:01N 37°57' E 023°38'0 0.0
2018-Jun-13 08:31N 37°57' E 023°38'0 0.0
2018-Jun-13 08:01N 37°57' E 023°38'0 0.0
2018-Jun-13 07:30N 37°57' E 023°38'0 0.0
2018-Jun-13 07:01N 37°57' E 023°38'0 0.0
2018-Jun-13 06:31N 37°57' E 023°38'0 0.0
2018-Jun-13 06:01N 37°57' E 023°38'0 0.0
2018-Jun-13 05:31N 37°57' E 023°38'0 0.0
2018-Jun-13 05:01N 37°57' E 023°38'0 0.0
2018-Jun-13 04:30N 37°57' E 023°38'0 0.0
2018-Jun-13 04:01N 37°57' E 023°38'0 0.0
2018-Jun-13 03:31N 37°57' E 023°38'0 0.0
2018-Jun-13 03:01N 37°57' E 023°38'0 0.0
2018-Jun-13 02:31N 37°57' E 023°38'0 0.0
2018-Jun-13 02:01N 37°57' E 023°38'0 0.0
2018-Jun-13 01:31N 37°57' E 023°38'0 0.0
2018-Jun-13 01:01N 37°57' E 023°38'0 0.0
2018-Jun-13 00:31N 37°57' E 023°38'0 0.0
2018-Jun-13 00:00N 37°57' E 023°38'0 0.0
2018-Jun-12 23:29N 37°57' E 023°38'0 0.0
2018-Jun-12 23:01N 37°57' E 023°38'0 0.0
2018-Jun-12 22:31N 37°57' E 023°38'0 0.0
2018-Jun-12 22:00N 37°57' E 023°38'0 0.0
2018-Jun-12 21:31N 37°57' E 023°38'0 0.0
2018-Jun-12 21:00N 37°57' E 023°38'0 0.0
2018-Jun-12 20:31N 37°57' E 023°38'0 0.0
2018-Jun-12 20:01N 37°57' E 023°38'0 0.0
2018-Jun-12 19:31N 37°57' E 023°38'0 0.0
2018-Jun-12 19:01N 37°57' E 023°38'0 0.0
2018-Jun-12 18:31N 37°57' E 023°38'0 0.0
2018-Jun-12 18:00N 37°57' E 023°38'0 0.0
2018-Jun-12 17:31N 37°57' E 023°38'0 0.0
2018-Jun-12 17:01N 37°57' E 023°38'0 0.0
2018-Jun-12 16:31N 37°57' E 023°38'0 0.0
2018-Jun-12 16:01N 37°57' E 023°38'0 0.0
2018-Jun-12 15:30N 37°57' E 023°38'0 0.0
2018-Jun-12 15:01N 37°57' E 023°38'0 0.0
2018-Jun-12 14:31N 37°57' E 023°38'0 0.0
2018-Jun-12 14:01N 37°57' E 023°38'0 0.0
2018-Jun-12 13:31N 37°57' E 023°38'0 0.0
2018-Jun-12 13:01N 37°57' E 023°38'0 0.0
2018-Jun-12 12:31N 37°57' E 023°38'0 0.0
2018-Jun-12 12:01N 37°57' E 023°38'0 0.0
2018-Jun-12 11:31N 37°57' E 023°38'0 0.0
2018-Jun-12 11:01N 37°57' E 023°38'0 0.0
2018-Jun-12 10:31N 37°57' E 023°38'0 0.0
2018-Jun-12 10:01N 37°57' E 023°38'0 0.0
2018-Jun-12 09:31N 37°57' E 023°38'0 0.0
2018-Jun-12 09:01N 37°57' E 023°38'0 0.0
2018-Jun-12 08:31N 37°57' E 023°38'0 0.0
2018-Jun-12 08:00N 37°57' E 023°38'0 0.0
2018-Jun-12 07:31N 37°57' E 023°38'0 0.0
2018-Jun-12 07:01N 37°57' E 023°38'0 0.0
2018-Jun-12 06:30N 37°57' E 023°38'0 0.0
2018-Jun-12 06:01N 37°57' E 023°38'0 0.0
2018-Jun-12 05:31N 37°57' E 023°38'0 0.0
2018-Jun-12 05:01N 37°57' E 023°38'0 0.0
2018-Jun-12 04:31N 37°57' E 023°38'0 0.0
2018-Jun-12 04:01N 37°57' E 023°38'0 0.0
2018-Jun-12 03:31N 37°57' E 023°38'0 0.0
2018-Jun-12 03:01N 37°57' E 023°38'0 0.0
2018-Jun-12 02:29N 37°57' E 023°38'0 0.0
2018-Jun-12 02:01N 37°57' E 023°38'0 0.0
2018-Jun-12 01:30N 37°57' E 023°38'0 0.0
2018-Jun-12 01:01N 37°57' E 023°38'0 0.0
2018-Jun-12 00:31N 37°57' E 023°38'0 0.0
2018-Jun-12 00:01N 37°57' E 023°38'0 0.0
2018-Jun-11 23:31N 37°57' E 023°38'0 0.0
2018-Jun-11 23:00N 37°57' E 023°38'0 0.0
2018-Jun-11 22:30N 37°57' E 023°38'0 0.0
2018-Jun-11 22:00N 37°57' E 023°38'0 0.0
2018-Jun-11 21:30N 37°57' E 023°38'0 0.0
2018-Jun-11 21:00N 37°57' E 023°38'0 0.0
2018-Jun-11 20:31N 37°57' E 023°38'0 0.0
2018-Jun-11 20:01N 37°57' E 023°38'0 0.0
2018-Jun-11 19:30N 37°57' E 023°38'0 0.0
2018-Jun-11 19:01N 37°57' E 023°38'0 0.0
2018-Jun-11 18:30N 37°57' E 023°38'0 0.0
2018-Jun-11 18:01N 37°57' E 023°38'0 0.0
2018-Jun-11 17:30N 37°57' E 023°38'0 0.0
2018-Jun-11 17:01N 37°57' E 023°38'0 0.0
2018-Jun-11 16:30N 37°57' E 023°38'0 0.8
2018-Jun-11 16:01N 37°56' E 023°38'918.3
2018-Jun-11 15:31N 37°48' E 023°41'9 0.8
2018-Jun-11 04:56N 37°39' E 023°43'1329.2
2018-Jun-11 04:31N 37°51' E 023°36'612.6
2018-Jun-11 04:00N 37°57' E 023°38'0 0.0
2018-Jun-11 03:30N 37°57' E 023°38'0 0.0
2018-Jun-11 03:00N 37°57' E 023°38'0 0.0
2018-Jun-11 02:30N 37°57' E 023°38'0 0.0
2018-Jun-11 02:00N 37°57' E 023°38'0 0.0
2018-Jun-11 01:30N 37°57' E 023°38'0 0.0
2018-Jun-11 01:00N 37°57' E 023°38'0 0.0
2018-Jun-11 00:30N 37°57' E 023°38'0 0.0
2018-Jun-11 00:00N 37°57' E 023°38'0 0.0
2018-Jun-10 23:30N 37°57' E 023°38'0 0.0
2018-Jun-10 23:00N 37°57' E 023°38'0 0.0
2018-Jun-10 22:30N 37°57' E 023°38'0 0.0
2018-Jun-10 22:00N 37°57' E 023°38'0 0.0
2018-Jun-10 21:30N 37°57' E 023°38'0 0.0
2018-Jun-10 21:00N 37°57' E 023°38'0 0.0
2018-Jun-10 20:30N 37°57' E 023°38'0 0.0
2018-Jun-10 20:00N 37°57' E 023°38'0 0.0
2018-Jun-10 19:30N 37°57' E 023°38'0 0.0
2018-Jun-10 19:00N 37°57' E 023°38'0 0.0
2018-Jun-10 18:30N 37°57' E 023°38'0 0.0
2018-Jun-10 18:00N 37°57' E 023°38'0 0.0
2018-Jun-10 17:30N 37°57' E 023°38'0 0.0
2018-Jun-10 17:00N 37°57' E 023°38'0 0.0
2018-Jun-10 16:30N 37°57' E 023°38'0 0.0
2018-Jun-10 15:59N 37°57' E 023°38'2 5.3
2018-Jun-10 15:31N 37°54' E 023°38'  
Track history (hours):
 
Tides and Currents Weather Stations Pressure Air Temp Water Temp Dewpoint Dewpoint Depression Visibility Wind Speed Wind Dir Waves Ship Positions

Hellenic Highspeed

Last reported at 2018-Jun-20 15:01 UTC. Time now 2018-Jun-20 15:16 UTC.
Position N 37°42' E 023°46'.

Length 87 m; draft 4 m.

Type: High speed craft. MMSI: 241420000.

Date/timePositionNaut miles runAvg speedWind from/ knotsBaromVisibWave heightAir tempDewpointWater temp
2018-Jun-20 15:01N 37°42' E 023°46'2 0.2
2018-Jun-20 04:58N 37°40' E 023°44'1225.4
2018-Jun-20 04:31N 37°50' E 023°37'713.6
2018-Jun-20 04:00N 37°57' E 023°38'0 0.0
2018-Jun-20 03:31N 37°57' E 023°38'0 0.0
2018-Jun-20 03:01N 37°57' E 023°38'0 0.0
2018-Jun-20 02:31N 37°57' E 023°38'0 0.0
2018-Jun-20 02:01N 37°57' E 023°38'0 0.0
2018-Jun-20 01:31N 37°57' E 023°38'0 0.0
2018-Jun-20 01:01N 37°57' E 023°38'0 0.0
2018-Jun-20 00:31N 37°57' E 023°38'0 0.0
2018-Jun-20 00:01N 37°57' E 023°38'0 0.0
2018-Jun-19 23:30N 37°57' E 023°38'0 0.0
2018-Jun-19 23:01N 37°57' E 023°38'0 0.0
2018-Jun-19 22:31N 37°57' E 023°38'0 0.0
2018-Jun-19 22:00N 37°57' E 023°38'0 0.0
2018-Jun-19 21:31N 37°57' E 023°38'0 0.0
2018-Jun-19 21:01N 37°57' E 023°38'0 0.0
2018-Jun-19 20:31N 37°57' E 023°38'0 0.0
2018-Jun-19 20:01N 37°57' E 023°38'0 0.0
2018-Jun-19 19:30N 37°57' E 023°38'0 0.0
2018-Jun-19 19:01N 37°57' E 023°38'0 0.0
2018-Jun-19 18:31N 37°57' E 023°38'0 0.0
2018-Jun-19 18:01N 37°57' E 023°38'0 0.0
2018-Jun-19 17:31N 37°57' E 023°38'0 0.0
2018-Jun-19 17:01N 37°57' E 023°38'0 0.0
2018-Jun-19 16:31N 37°57' E 023°38'0 0.0
2018-Jun-19 16:01N 37°57' E 023°38'3 7.0
2018-Jun-19 15:31N 37°53' E 023°38'18 1.7
2018-Jun-19 04:59N 37°37' E 023°47'1429.2
2018-Jun-19 04:30N 37°49' E 023°38'816.3
2018-Jun-19 04:01N 37°57' E 023°38'0 0.0
2018-Jun-19 03:30N 37°57' E 023°38'0 0.0
2018-Jun-19 03:00N 37°57' E 023°38'0 0.0
2018-Jun-19 02:30N 37°57' E 023°38'0 0.0
2018-Jun-19 02:00N 37°57' E 023°38'0 0.0
2018-Jun-19 01:31N 37°57' E 023°38'0 0.0
2018-Jun-19 01:00N 37°57' E 023°38'0 0.0
2018-Jun-19 00:30N 37°57' E 023°38'0 0.0
2018-Jun-19 00:00N 37°57' E 023°38'0 0.0
2018-Jun-18 23:30N 37°57' E 023°38'0 0.0
2018-Jun-18 23:01N 37°57' E 023°38'0 0.0
2018-Jun-18 22:30N 37°57' E 023°38'0 0.0
2018-Jun-18 22:00N 37°57' E 023°38'0 0.0
2018-Jun-18 21:30N 37°57' E 023°38'0 0.0
2018-Jun-18 21:00N 37°57' E 023°38'0 0.0
2018-Jun-18 20:30N 37°57' E 023°38'0 0.0
2018-Jun-18 20:00N 37°57' E 023°38'0 0.0
2018-Jun-18 19:30N 37°57' E 023°38'0 0.0
2018-Jun-18 19:00N 37°57' E 023°38'0 0.0
2018-Jun-18 18:30N 37°57' E 023°38'0 0.0
2018-Jun-18 18:00N 37°57' E 023°38'0 0.0
2018-Jun-18 17:30N 37°57' E 023°38'0 0.0
2018-Jun-18 17:00N 37°57' E 023°38'0 0.0
2018-Jun-18 16:30N 37°57' E 023°38'0 0.0
2018-Jun-18 16:01N 37°57' E 023°38'3 7.0
2018-Jun-18 15:31N 37°53' E 023°38'1427.8
2018-Jun-18 15:00N 37°41' E 023°46'2 0.2
2018-Jun-18 04:54N 37°39' E 023°45'1128.8
2018-Jun-18 04:31N 37°49' E 023°38'816.0
2018-Jun-18 04:00N 37°57' E 023°38'0 0.0
2018-Jun-18 03:30N 37°57' E 023°38'0 0.0
2018-Jun-18 03:00N 37°57' E 023°38'0 0.0
2018-Jun-18 02:30N 37°57' E 023°38'0 0.0
2018-Jun-18 02:00N 37°57' E 023°38'0 0.0
2018-Jun-18 01:30N 37°57' E 023°38'0 0.0
2018-Jun-18 01:00N 37°57' E 023°38'0 0.0
2018-Jun-18 00:30N 37°57' E 023°38'0 0.0
2018-Jun-18 00:00N 37°57' E 023°38'0 0.0
2018-Jun-17 23:30N 37°57' E 023°38'0 0.0
2018-Jun-17 23:00N 37°57' E 023°38'0 0.0
2018-Jun-17 22:30N 37°57' E 023°38'0 0.0
2018-Jun-17 22:00N 37°57' E 023°38'0 0.0
2018-Jun-17 21:30N 37°57' E 023°38'0 0.0
2018-Jun-17 21:00N 37°57' E 023°38'0 0.0
2018-Jun-17 20:30N 37°57' E 023°38'0 0.0
2018-Jun-17 20:01N 37°57' E 023°38'0 0.0
2018-Jun-17 19:30N 37°57' E 023°38'0 0.0
2018-Jun-17 19:00N 37°57' E 023°38'0 0.0
2018-Jun-17 18:30N 37°57' E 023°38'0 0.0
2018-Jun-17 18:00N 37°57' E 023°38'0 0.0
2018-Jun-17 17:30N 37°57' E 023°38'0 0.0
2018-Jun-17 17:00N 37°57' E 023°38'0 0.0
2018-Jun-17 16:30N 37°57' E 023°38'0 0.0
2018-Jun-17 16:00N 37°57' E 023°38'5 9.6
2018-Jun-17 15:31N 37°52' E 023°39'16 1.6
2018-Jun-17 05:00N 37°37' E 023°47'1428.9
2018-Jun-17 04:31N 37°49' E 023°37'815.7
2018-Jun-17 04:01N 37°57' E 023°38'0 0.0
2018-Jun-17 03:30N 37°57' E 023°38'0 0.0
2018-Jun-17 03:00N 37°57' E 023°38'0 0.0
2018-Jun-17 02:30N 37°57' E 023°38'0 0.0
2018-Jun-17 02:00N 37°57' E 023°38'0 0.0
2018-Jun-17 01:30N 37°57' E 023°38'0 0.0
2018-Jun-17 01:00N 37°57' E 023°38'0 0.0
2018-Jun-17 00:30N 37°57' E 023°38'0 0.0
2018-Jun-17 00:00N 37°57' E 023°38'0 0.0
2018-Jun-16 23:30N 37°57' E 023°38'0 0.0
2018-Jun-16 23:00N 37°57' E 023°38'0 0.0
2018-Jun-16 22:30N 37°57' E 023°38'0 0.0
2018-Jun-16 22:00N 37°57' E 023°38'0 0.0
2018-Jun-16 21:30N 37°57' E 023°38'0 0.0
2018-Jun-16 21:00N 37°57' E 023°38'0 0.0
2018-Jun-16 20:30N 37°57' E 023°38'0 0.0
2018-Jun-16 20:00N 37°57' E 023°38'0 0.0
2018-Jun-16 19:30N 37°57' E 023°38'0 0.0
2018-Jun-16 19:00N 37°57' E 023°38'0 0.0
2018-Jun-16 18:30N 37°57' E 023°38'0 0.0
2018-Jun-16 18:00N 37°57' E 023°38'0 0.0
2018-Jun-16 17:30N 37°57' E 023°38'0 0.0
2018-Jun-16 17:00N 37°57' E 023°38'0 0.0
2018-Jun-16 16:30N 37°57' E 023°38'0 0.0
2018-Jun-16 16:00N 37°57' E 023°38'4 7.7
2018-Jun-16 15:31N 37°53' E 023°38'16 1.5
2018-Jun-16 04:56N 37°38' E 023°46'1228.7
2018-Jun-16 04:31N 37°49' E 023°38'816.4
2018-Jun-16 04:00N 37°57' E 023°38'0 0.0
2018-Jun-16 03:30N 37°57' E 023°38'0 0.0
2018-Jun-16 03:00N 37°57' E 023°38'0 0.0
2018-Jun-16 02:30N 37°57' E 023°38'0 0.0
2018-Jun-16 02:00N 37°57' E 023°38'0 0.0
2018-Jun-16 01:30N 37°57' E 023°38'0 0.0
2018-Jun-16 01:00N 37°57' E 023°38'0 0.0
2018-Jun-16 00:30N 37°57' E 023°38'0 0.0
2018-Jun-16 00:00N 37°57' E 023°38'0 0.0
2018-Jun-15 23:30N 37°57' E 023°38'0 0.0
2018-Jun-15 23:00N 37°57' E 023°38'0 0.0
2018-Jun-15 22:30N 37°57' E 023°38'0 0.0
2018-Jun-15 22:00N 37°57' E 023°38'0 0.0
2018-Jun-15 21:30N 37°57' E 023°38'0 0.0
2018-Jun-15 21:00N 37°57' E 023°38'0 0.0
2018-Jun-15 20:30N 37°57' E 023°38'0 0.0
2018-Jun-15 20:00N 37°57' E 023°38'0 0.0
2018-Jun-15 19:30N 37°57' E 023°38'0 0.0
2018-Jun-15 19:00N 37°57' E 023°38'0 0.0
2018-Jun-15 18:30N 37°57' E 023°38'0 0.0
2018-Jun-15 18:00N 37°57' E 023°38'0 0.0
2018-Jun-15 17:30N 37°57' E 023°38'0 0.0
2018-Jun-15 17:00N 37°57' E 023°38'0 0.0
2018-Jun-15 16:30N 37°57' E 023°38'0 0.0
2018-Jun-15 16:00N 37°57' E 023°38'5 9.6
2018-Jun-15 15:31N 37°52' E 023°39'16 1.5
2018-Jun-15 05:00N 37°37' E 023°46'1427.5
2018-Jun-15 04:31N 37°49' E 023°37'815.4
2018-Jun-15 04:00N 37°57' E 023°38'0 0.0
2018-Jun-15 03:30N 37°57' E 023°38'0 0.0
2018-Jun-15 03:00N 37°57' E 023°38'0 0.0
2018-Jun-15 02:30N 37°57' E 023°38'0 0.0
2018-Jun-15 01:59N 37°57' E 023°38'0 0.0
2018-Jun-15 01:30N 37°57' E 023°38'0 0.0
2018-Jun-15 01:00N 37°57' E 023°38'0 0.0
2018-Jun-15 00:30N 37°57' E 023°38'0 0.0
2018-Jun-15 00:00N 37°57' E 023°38'0 0.0
2018-Jun-14 23:30N 37°57' E 023°38'0 0.0
2018-Jun-14 23:00N 37°57' E 023°38'0 0.0
2018-Jun-14 22:30N 37°57' E 023°38'0 0.0
2018-Jun-14 22:00N 37°57' E 023°38'0 0.0
2018-Jun-14 21:30N 37°57' E 023°38'0 0.0
2018-Jun-14 21:00N 37°57' E 023°38'0 0.0
2018-Jun-14 20:30N 37°57' E 023°38'0 0.0
2018-Jun-14 20:00N 37°57' E 023°38'0 0.0
2018-Jun-14 19:30N 37°57' E 023°38'0 0.0
2018-Jun-14 19:00N 37°57' E 023°38'0 0.0
2018-Jun-14 18:30N 37°57' E 023°38'0 0.0
2018-Jun-14 18:00N 37°57' E 023°38'0 0.0
2018-Jun-14 17:30N 37°57' E 023°38'0 0.0
2018-Jun-14 17:00N 37°57' E 023°38'0 0.0
2018-Jun-14 16:30N 37°57' E 023°38'0 0.0
2018-Jun-14 16:00N 37°57' E 023°38'2 4.1
2018-Jun-14 15:30N 37°55' E 023°37'1326.3
2018-Jun-14 15:00N 37°43' E 023°44'3 0.3
2018-Jun-14 04:52N 37°40' E 023°43'1028.8
2018-Jun-14 04:30N 37°49' E 023°37'8 0.6
2018-Jun-13 14:42N 37°57' E 023°38'0 0.0
2018-Jun-13 14:31N 37°57' E 023°38'0 0.0
2018-Jun-13 14:01N 37°57' E 023°38'0 0.0
2018-Jun-13 13:31N 37°57' E 023°38'0 0.0
2018-Jun-13 13:01N 37°57' E 023°38'0 0.0
2018-Jun-13 12:30N 37°57' E 023°38'0 0.0
2018-Jun-13 12:01N 37°57' E 023°38'0 0.0
2018-Jun-13 11:30N 37°57' E 023°38'0 0.0
2018-Jun-13 11:01N 37°57' E 023°38'0 0.0
2018-Jun-13 10:30N 37°57' E 023°38'0 0.0
2018-Jun-13 10:01N 37°57' E 023°38'0 0.0
2018-Jun-13 09:31N 37°57' E 023°38'0 0.0
2018-Jun-13 09:01N 37°57' E 023°38'0 0.0
2018-Jun-13 08:31N 37°57' E 023°38'0 0.0
2018-Jun-13 08:01N 37°57' E 023°38'0 0.0
2018-Jun-13 07:30N 37°57' E 023°38'0 0.0
2018-Jun-13 07:01N 37°57' E 023°38'0 0.0
2018-Jun-13 06:31N 37°57' E 023°38'0 0.0
2018-Jun-13 06:01N 37°57' E 023°38'0 0.0
2018-Jun-13 05:31N 37°57' E 023°38'0 0.0
2018-Jun-13 05:01N 37°57' E 023°38'0 0.0
2018-Jun-13 04:30N 37°57' E 023°38'0 0.0
2018-Jun-13 04:01N 37°57' E 023°38'0 0.0
2018-Jun-13 03:31N 37°57' E 023°38'0 0.0
2018-Jun-13 03:01N 37°57' E 023°38'0 0.0
2018-Jun-13 02:31N 37°57' E 023°38'0 0.0
2018-Jun-13 02:01N 37°57' E 023°38'0 0.0
2018-Jun-13 01:31N 37°57' E 023°38'0 0.0
2018-Jun-13 01:01N 37°57' E 023°38'0 0.0
2018-Jun-13 00:31N 37°57' E 023°38'0 0.0
2018-Jun-13 00:00N 37°57' E 023°38'0 0.0
2018-Jun-12 23:29N 37°57' E 023°38'0 0.0
2018-Jun-12 23:01N 37°57' E 023°38'0 0.0
2018-Jun-12 22:31N 37°57' E 023°38'0 0.0
2018-Jun-12 22:00N 37°57' E 023°38'0 0.0
2018-Jun-12 21:31N 37°57' E 023°38'0 0.0
2018-Jun-12 21:00N 37°57' E 023°38'0 0.0
2018-Jun-12 20:31N 37°57' E 023°38'0 0.0
2018-Jun-12 20:01N 37°57' E 023°38'0 0.0
2018-Jun-12 19:31N 37°57' E 023°38'0 0.0
2018-Jun-12 19:01N 37°57' E 023°38'0 0.0
2018-Jun-12 18:31N 37°57' E 023°38'0 0.0
2018-Jun-12 18:00N 37°57' E 023°38'0 0.0
2018-Jun-12 17:31N 37°57' E 023°38'0 0.0
2018-Jun-12 17:01N 37°57' E 023°38'0 0.0
2018-Jun-12 16:31N 37°57' E 023°38'0 0.0
2018-Jun-12 16:01N 37°57' E 023°38'0 0.0
2018-Jun-12 15:30N 37°57' E 023°38'0 0.0
2018-Jun-12 15:01N 37°57' E 023°38'0 0.0
2018-Jun-12 14:31N 37°57' E 023°38'0 0.0
2018-Jun-12 14:01N 37°57' E 023°38'0 0.0
2018-Jun-12 13:31N 37°57' E 023°38'0 0.0
2018-Jun-12 13:01N 37°57' E 023°38'0 0.0
2018-Jun-12 12:31N 37°57' E 023°38'0 0.0
2018-Jun-12 12:01N 37°57' E 023°38'0 0.0
2018-Jun-12 11:31N 37°57' E 023°38'0 0.0
2018-Jun-12 11:01N 37°57' E 023°38'0 0.0
2018-Jun-12 10:31N 37°57' E 023°38'0 0.0
2018-Jun-12 10:01N 37°57' E 023°38'0 0.0
2018-Jun-12 09:31N 37°57' E 023°38'0 0.0
2018-Jun-12 09:01N 37°57' E 023°38'0 0.0
2018-Jun-12 08:31N 37°57' E 023°38'0 0.0
2018-Jun-12 08:00N 37°57' E 023°38'0 0.0
2018-Jun-12 07:31N 37°57' E 023°38'0 0.0
2018-Jun-12 07:01N 37°57' E 023°38'0 0.0
2018-Jun-12 06:30N 37°57' E 023°38'0 0.0
2018-Jun-12 06:01N 37°57' E 023°38'0 0.0
2018-Jun-12 05:31N 37°57' E 023°38'0 0.0
2018-Jun-12 05:01N 37°57' E 023°38'0 0.0
2018-Jun-12 04:31N 37°57' E 023°38'0 0.0
2018-Jun-12 04:01N 37°57' E 023°38'0 0.0
2018-Jun-12 03:31N 37°57' E 023°38'0 0.0
2018-Jun-12 03:01N 37°57' E 023°38'0 0.0
2018-Jun-12 02:29N 37°57' E 023°38'0 0.0
2018-Jun-12 02:01N 37°57' E 023°38'0 0.0
2018-Jun-12 01:30N 37°57' E 023°38'0 0.0
2018-Jun-12 01:01N 37°57' E 023°38'0 0.0
2018-Jun-12 00:31N 37°57' E 023°38'0 0.0
2018-Jun-12 00:01N 37°57' E 023°38'0 0.0
2018-Jun-11 23:31N 37°57' E 023°38'0 0.0
2018-Jun-11 23:00N 37°57' E 023°38'0 0.0
2018-Jun-11 22:30N 37°57' E 023°38'0 0.0
2018-Jun-11 22:00N 37°57' E 023°38'0 0.0
2018-Jun-11 21:30N 37°57' E 023°38'0 0.0
2018-Jun-11 21:00N 37°57' E 023°38'0 0.0
2018-Jun-11 20:31N 37°57' E 023°38'0 0.0
2018-Jun-11 20:01N 37°57' E 023°38'0 0.0
2018-Jun-11 19:30N 37°57' E 023°38'0 0.0
2018-Jun-11 19:01N 37°57' E 023°38'0 0.0
2018-Jun-11 18:30N 37°57' E 023°38'0 0.0
2018-Jun-11 18:01N 37°57' E 023°38'0 0.0
2018-Jun-11 17:30N 37°57' E 023°38'0 0.0
2018-Jun-11 17:01N 37°57' E 023°38'0 0.0
2018-Jun-11 16:30N 37°57' E 023°38'0 0.8
2018-Jun-11 16:01N 37°56' E 023°38'918.3
2018-Jun-11 15:31N 37°48' E 023°41'9 0.8
2018-Jun-11 04:56N 37°39' E 023°43'1329.2
2018-Jun-11 04:31N 37°51' E 023°36'612.6
2018-Jun-11 04:00N 37°57' E 023°38'0 0.0
2018-Jun-11 03:30N 37°57' E 023°38'0 0.0
2018-Jun-11 03:00N 37°57' E 023°38'0 0.0
2018-Jun-11 02:30N 37°57' E 023°38'0 0.0
2018-Jun-11 02:00N 37°57' E 023°38'0 0.0
2018-Jun-11 01:30N 37°57' E 023°38'0 0.0
2018-Jun-11 01:00N 37°57' E 023°38'0 0.0
2018-Jun-11 00:30N 37°57' E 023°38'0 0.0
2018-Jun-11 00:00N 37°57' E 023°38'0 0.0
2018-Jun-10 23:30N 37°57' E 023°38'0 0.0
2018-Jun-10 23:00N 37°57' E 023°38'0 0.0
2018-Jun-10 22:30N 37°57' E 023°38'0 0.0
2018-Jun-10 22:00N 37°57' E 023°38'0 0.0
2018-Jun-10 21:30N 37°57' E 023°38'0 0.0
2018-Jun-10 21:00N 37°57' E 023°38'0 0.0
2018-Jun-10 20:30N 37°57' E 023°38'0 0.0
2018-Jun-10 20:00N 37°57' E 023°38'0 0.0
2018-Jun-10 19:30N 37°57' E 023°38'0 0.0
2018-Jun-10 19:00N 37°57' E 023°38'0 0.0
2018-Jun-10 18:30N 37°57' E 023°38'0 0.0
2018-Jun-10 18:00N 37°57' E 023°38'0 0.0
2018-Jun-10 17:30N 37°57' E 023°38'0 0.0
2018-Jun-10 17:00N 37°57' E 023°38'0 0.0
2018-Jun-10 16:30N 37°57' E 023°38'0 0.0
2018-Jun-10 15:59N 37°57' E 023°38'2 5.3
2018-Jun-10 15:31N 37°54' E 023°38'  

Dump ship's entire track history